sensor_id;sensor_type;location;lat;lon;timestamp;P1;durP1;ratioP1;P2;durP2;ratioP2
74677;SDS011;66967;56.330;43.994;2023-01-16T00:01:20;2.17;;;1.60;;
74677;SDS011;66967;56.330;43.994;2023-01-16T00:03:47;2.75;;;1.63;;
74677;SDS011;66967;56.330;43.994;2023-01-16T00:06:13;2.08;;;1.58;;
74677;SDS011;66967;56.330;43.994;2023-01-16T00:08:58;2.10;;;1.65;;
74677;SDS011;66967;56.330;43.994;2023-01-16T00:11:24;2.20;;;1.55;;
74677;SDS011;66967;56.330;43.994;2023-01-16T00:13:50;2.13;;;1.48;;
74677;SDS011;66967;56.330;43.994;2023-01-16T00:16:15;2.28;;;1.67;;
74677;SDS011;66967;56.330;43.994;2023-01-16T00:18:44;2.90;;;1.67;;
74677;SDS011;66967;56.330;43.994;2023-01-16T00:21:10;2.75;;;1.67;;
74677;SDS011;66967;56.330;43.994;2023-01-16T00:23:35;2.10;;;1.58;;
74677;SDS011;66967;56.330;43.994;2023-01-16T00:26:08;1.80;;;1.50;;
74677;SDS011;66967;56.330;43.994;2023-01-16T00:28:35;2.45;;;1.58;;
74677;SDS011;66967;56.330;43.994;2023-01-16T00:31:04;2.85;;;1.60;;
74677;SDS011;66967;56.330;43.994;2023-01-16T00:33:31;2.05;;;1.55;;
74677;SDS011;66967;56.330;43.994;2023-01-16T00:36:00;2.78;;;1.50;;
74677;SDS011;66967;56.330;43.994;2023-01-16T00:38:27;2.00;;;1.38;;
74677;SDS011;66967;56.330;43.994;2023-01-16T00:40:52;2.83;;;1.67;;
74677;SDS011;66967;56.330;43.994;2023-01-16T00:43:18;2.65;;;1.70;;
74677;SDS011;66967;56.330;43.994;2023-01-16T00:45:44;2.63;;;1.55;;
74677;SDS011;66967;56.330;43.994;2023-01-16T00:48:10;2.53;;;1.60;;
74677;SDS011;66967;56.330;43.994;2023-01-16T00:50:36;2.20;;;1.45;;
74677;SDS011;66967;56.330;43.994;2023-01-16T00:53:02;2.38;;;1.63;;
74677;SDS011;66967;56.330;43.994;2023-01-16T00:55:28;2.08;;;1.55;;
74677;SDS011;66967;56.330;43.994;2023-01-16T00:57:53;2.17;;;1.50;;
74677;SDS011;66967;56.330;43.994;2023-01-16T01:00:19;2.45;;;1.50;;
74677;SDS011;66967;56.330;43.994;2023-01-16T01:02:49;2.10;;;1.38;;
74677;SDS011;66967;56.330;43.994;2023-01-16T01:05:16;2.10;;;1.52;;
74677;SDS011;66967;56.330;43.994;2023-01-16T01:07:42;2.40;;;1.50;;
74677;SDS011;66967;56.330;43.994;2023-01-16T01:10:08;2.58;;;1.70;;
74677;SDS011;66967;56.330;43.994;2023-01-16T01:12:35;2.30;;;1.67;;
74677;SDS011;66967;56.330;43.994;2023-01-16T01:15:01;3.05;;;1.40;;
74677;SDS011;66967;56.330;43.994;2023-01-16T01:17:28;2.50;;;1.55;;
74677;SDS011;66967;56.330;43.994;2023-01-16T01:19:54;2.08;;;1.70;;
74677;SDS011;66967;56.330;43.994;2023-01-16T01:22:20;2.85;;;1.50;;
74677;SDS011;66967;56.330;43.994;2023-01-16T01:24:46;2.35;;;1.60;;
74677;SDS011;66967;56.330;43.994;2023-01-16T01:27:14;1.90;;;1.38;;
74677;SDS011;66967;56.330;43.994;2023-01-16T01:29:41;2.22;;;1.50;;
74677;SDS011;66967;56.330;43.994;2023-01-16T01:32:25;2.63;;;1.48;;
74677;SDS011;66967;56.330;43.994;2023-01-16T01:34:51;2.38;;;1.60;;
74677;SDS011;66967;56.330;43.994;2023-01-16T01:37:16;2.30;;;1.75;;
74677;SDS011;66967;56.330;43.994;2023-01-16T01:39:42;2.35;;;1.60;;
74677;SDS011;66967;56.330;43.994;2023-01-16T01:42:11;3.20;;;1.63;;
74677;SDS011;66967;56.330;43.994;2023-01-16T01:44:56;2.20;;;1.48;;
74677;SDS011;66967;56.330;43.994;2023-01-16T01:47:31;2.10;;;1.27;;
74677;SDS011;66967;56.330;43.994;2023-01-16T01:50:00;2.78;;;1.63;;
74677;SDS011;66967;56.330;43.994;2023-01-16T01:52:48;2.88;;;1.70;;
74677;SDS011;66967;56.330;43.994;2023-01-16T01:55:16;2.88;;;1.70;;
74677;SDS011;66967;56.330;43.994;2023-01-16T01:57:46;2.40;;;1.60;;
74677;SDS011;66967;56.330;43.994;2023-01-16T02:00:19;1.85;;;1.40;;
74677;SDS011;66967;56.330;43.994;2023-01-16T02:02:48;2.65;;;1.70;;
74677;SDS011;66967;56.330;43.994;2023-01-16T02:05:37;2.42;;;1.55;;
74677;SDS011;66967;56.330;43.994;2023-01-16T02:08:29;2.22;;;1.45;;
74677;SDS011;66967;56.330;43.994;2023-01-16T02:11:02;2.15;;;1.50;;
74677;SDS011;66967;56.330;43.994;2023-01-16T02:13:29;2.40;;;1.38;;
74677;SDS011;66967;56.330;43.994;2023-01-16T02:15:55;1.95;;;1.38;;
74677;SDS011;66967;56.330;43.994;2023-01-16T02:18:40;3.08;;;1.60;;
74677;SDS011;66967;56.330;43.994;2023-01-16T02:21:34;1.95;;;1.45;;
74677;SDS011;66967;56.330;43.994;2023-01-16T02:27:14;3.22;;;1.60;;
74677;SDS011;66967;56.330;43.994;2023-01-16T02:33:05;2.05;;;1.50;;
74677;SDS011;66967;56.330;43.994;2023-01-16T02:38:34;2.63;;;1.50;;
74677;SDS011;66967;56.330;43.994;2023-01-16T02:47:07;2.10;;;1.70;;
74677;SDS011;66967;56.330;43.994;2023-01-16T02:52:48;2.35;;;1.50;;
74677;SDS011;66967;56.330;43.994;2023-01-16T02:55:33;2.33;;;1.38;;
74677;SDS011;66967;56.330;43.994;2023-01-16T02:58:04;2.17;;;1.63;;
74677;SDS011;66967;56.330;43.994;2023-01-16T03:00:54;2.08;;;1.40;;
74677;SDS011;66967;56.330;43.994;2023-01-16T03:03:43;2.25;;;1.40;;
74677;SDS011;66967;56.330;43.994;2023-01-16T03:06:13;2.25;;;1.52;;
74677;SDS011;66967;56.330;43.994;2023-01-16T03:09:11;1.73;;;1.48;;
74677;SDS011;66967;56.330;43.994;2023-01-16T03:15:03;2.38;;;1.58;;
74677;SDS011;66967;56.330;43.994;2023-01-16T03:20:49;2.30;;;1.50;;
74677;SDS011;66967;56.330;43.994;2023-01-16T03:23:39;2.17;;;1.58;;
74677;SDS011;66967;56.330;43.994;2023-01-16T03:26:16;3.03;;;1.50;;
74677;SDS011;66967;56.330;43.994;2023-01-16T03:29:21;2.00;;;1.50;;
74677;SDS011;66967;56.330;43.994;2023-01-16T03:31:56;2.47;;;1.40;;
74677;SDS011;66967;56.330;43.994;2023-01-16T03:34:31;1.75;;;1.42;;
74677;SDS011;66967;56.330;43.994;2023-01-16T03:39:33;2.97;;;1.40;;
74677;SDS011;66967;56.330;43.994;2023-01-16T03:42:05;2.05;;;1.40;;
74677;SDS011;66967;56.330;43.994;2023-01-16T03:44:39;2.78;;;1.60;;
74677;SDS011;66967;56.330;43.994;2023-01-16T03:47:12;3.15;;;1.58;;
74677;SDS011;66967;56.330;43.994;2023-01-16T03:49:45;2.45;;;1.17;;
74677;SDS011;66967;56.330;43.994;2023-01-16T03:52:15;1.90;;;1.42;;
74677;SDS011;66967;56.330;43.994;2023-01-16T03:54:51;2.00;;;1.40;;
74677;SDS011;66967;56.330;43.994;2023-01-16T03:57:26;1.90;;;1.40;;
74677;SDS011;66967;56.330;43.994;2023-01-16T03:59:56;1.98;;;1.50;;
74677;SDS011;66967;56.330;43.994;2023-01-16T04:02:30;3.40;;;1.40;;
74677;SDS011;66967;56.330;43.994;2023-01-16T04:05:14;2.70;;;1.40;;
74677;SDS011;66967;56.330;43.994;2023-01-16T04:10:29;2.67;;;1.45;;
74677;SDS011;66967;56.330;43.994;2023-01-16T04:13:05;2.25;;;1.20;;
74677;SDS011;66967;56.330;43.994;2023-01-16T04:15:35;2.05;;;1.50;;
74677;SDS011;66967;56.330;43.994;2023-01-16T04:18:07;2.08;;;1.50;;
74677;SDS011;66967;56.330;43.994;2023-01-16T04:20:33;1.95;;;1.42;;
74677;SDS011;66967;56.330;43.994;2023-01-16T04:23:01;2.00;;;1.35;;
74677;SDS011;66967;56.330;43.994;2023-01-16T04:25:27;2.38;;;1.40;;
74677;SDS011;66967;56.330;43.994;2023-01-16T04:27:53;2.08;;;1.27;;
74677;SDS011;66967;56.330;43.994;2023-01-16T04:30:19;2.33;;;1.40;;
74677;SDS011;66967;56.330;43.994;2023-01-16T04:32:45;1.75;;;1.40;;
74677;SDS011;66967;56.330;43.994;2023-01-16T04:35:11;2.30;;;1.27;;
74677;SDS011;66967;56.330;43.994;2023-01-16T04:37:37;1.67;;;1.30;;
74677;SDS011;66967;56.330;43.994;2023-01-16T04:40:03;1.70;;;1.40;;
74677;SDS011;66967;56.330;43.994;2023-01-16T04:42:29;1.60;;;1.27;;
74677;SDS011;66967;56.330;43.994;2023-01-16T04:44:55;2.90;;;1.50;;
74677;SDS011;66967;56.330;43.994;2023-01-16T04:47:39;1.63;;;1.25;;
74677;SDS011;66967;56.330;43.994;2023-01-16T04:50:05;2.17;;;1.27;;
74677;SDS011;66967;56.330;43.994;2023-01-16T04:52:31;1.80;;;1.30;;
74677;SDS011;66967;56.330;43.994;2023-01-16T04:54:57;2.05;;;1.50;;
74677;SDS011;66967;56.330;43.994;2023-01-16T04:57:23;1.98;;;1.55;;
74677;SDS011;66967;56.330;43.994;2023-01-16T04:59:49;2.13;;;1.30;;
74677;SDS011;66967;56.330;43.994;2023-01-16T05:02:14;2.95;;;1.40;;
74677;SDS011;66967;56.330;43.994;2023-01-16T05:04:40;1.77;;;1.30;;
74677;SDS011;66967;56.330;43.994;2023-01-16T05:07:06;3.08;;;1.60;;
74677;SDS011;66967;56.330;43.994;2023-01-16T05:09:32;2.53;;;1.48;;
74677;SDS011;66967;56.330;43.994;2023-01-16T05:11:58;2.22;;;1.42;;
74677;SDS011;66967;56.330;43.994;2023-01-16T05:14:23;2.22;;;1.35;;
74677;SDS011;66967;56.330;43.994;2023-01-16T05:16:49;3.45;;;1.63;;
74677;SDS011;66967;56.330;43.994;2023-01-16T05:19:15;2.58;;;1.30;;
74677;SDS011;66967;56.330;43.994;2023-01-16T05:21:41;2.78;;;1.60;;
74677;SDS011;66967;56.330;43.994;2023-01-16T05:24:07;3.38;;;1.70;;
74677;SDS011;66967;56.330;43.994;2023-01-16T05:26:33;3.22;;;1.42;;
74677;SDS011;66967;56.330;43.994;2023-01-16T05:28:58;4.07;;;1.80;;
74677;SDS011;66967;56.330;43.994;2023-01-16T05:31:24;6.90;;;1.75;;
74677;SDS011;66967;56.330;43.994;2023-01-16T05:33:50;5.00;;;1.80;;
74677;SDS011;66967;56.330;43.994;2023-01-16T05:36:16;5.03;;;1.67;;
74677;SDS011;66967;56.330;43.994;2023-01-16T05:38:42;5.50;;;1.60;;
74677;SDS011;66967;56.330;43.994;2023-01-16T05:41:08;5.05;;;1.75;;
74677;SDS011;66967;56.330;43.994;2023-01-16T05:43:52;4.80;;;1.60;;
74677;SDS011;66967;56.330;43.994;2023-01-16T05:46:18;5.18;;;1.38;;
74677;SDS011;66967;56.330;43.994;2023-01-16T05:48:44;5.15;;;1.55;;
74677;SDS011;66967;56.330;43.994;2023-01-16T05:51:10;5.03;;;1.88;;
74677;SDS011;66967;56.330;43.994;2023-01-16T05:53:37;3.88;;;1.60;;
74677;SDS011;66967;56.330;43.994;2023-01-16T05:56:07;3.80;;;1.75;;
74677;SDS011;66967;56.330;43.994;2023-01-16T05:58:34;4.63;;;1.70;;
74677;SDS011;66967;56.330;43.994;2023-01-16T06:01:01;4.35;;;1.60;;
74677;SDS011;66967;56.330;43.994;2023-01-16T06:03:27;3.85;;;1.73;;
74677;SDS011;66967;56.330;43.994;2023-01-16T06:05:53;4.15;;;1.60;;
74677;SDS011;66967;56.330;43.994;2023-01-16T06:08:19;3.78;;;1.48;;
74677;SDS011;66967;56.330;43.994;2023-01-16T06:10:44;3.58;;;1.58;;
74677;SDS011;66967;56.330;43.994;2023-01-16T06:13:11;4.15;;;1.70;;
74677;SDS011;66967;56.330;43.994;2023-01-16T06:15:37;3.28;;;1.55;;
74677;SDS011;66967;56.330;43.994;2023-01-16T06:18:02;3.35;;;1.52;;
74677;SDS011;66967;56.330;43.994;2023-01-16T06:20:28;3.03;;;1.50;;
74677;SDS011;66967;56.330;43.994;2023-01-16T06:22:54;3.25;;;1.40;;
74677;SDS011;66967;56.330;43.994;2023-01-16T06:25:20;2.97;;;1.42;;
74677;SDS011;66967;56.330;43.994;2023-01-16T06:27:52;2.25;;;1.60;;
74677;SDS011;66967;56.330;43.994;2023-01-16T06:30:18;1.98;;;1.42;;
74677;SDS011;66967;56.330;43.994;2023-01-16T06:32:47;4.15;;;1.50;;
74677;SDS011;66967;56.330;43.994;2023-01-16T06:35:14;3.25;;;1.67;;
74677;SDS011;66967;56.330;43.994;2023-01-16T06:37:40;2.70;;;1.33;;
74677;SDS011;66967;56.330;43.994;2023-01-16T06:40:06;3.10;;;1.50;;
74677;SDS011;66967;56.330;43.994;2023-01-16T06:42:33;4.20;;;1.73;;
74677;SDS011;66967;56.330;43.994;2023-01-16T06:44:59;2.97;;;1.50;;
74677;SDS011;66967;56.330;43.994;2023-01-16T06:47:25;3.05;;;1.52;;
74677;SDS011;66967;56.330;43.994;2023-01-16T06:49:52;3.03;;;1.60;;
74677;SDS011;66967;56.330;43.994;2023-01-16T06:52:37;3.53;;;1.50;;
74677;SDS011;66967;56.330;43.994;2023-01-16T06:55:05;3.80;;;1.70;;
74677;SDS011;66967;56.330;43.994;2023-01-16T06:57:31;3.05;;;1.60;;
74677;SDS011;66967;56.330;43.994;2023-01-16T06:59:56;3.42;;;1.40;;
74677;SDS011;66967;56.330;43.994;2023-01-16T07:02:22;2.00;;;1.40;;
74677;SDS011;66967;56.330;43.994;2023-01-16T07:04:48;3.10;;;1.50;;
74677;SDS011;66967;56.330;43.994;2023-01-16T07:07:14;3.50;;;1.40;;
74677;SDS011;66967;56.330;43.994;2023-01-16T07:09:40;2.25;;;1.50;;
74677;SDS011;66967;56.330;43.994;2023-01-16T07:12:06;3.47;;;1.60;;
74677;SDS011;66967;56.330;43.994;2023-01-16T07:14:32;2.55;;;1.30;;
74677;SDS011;66967;56.330;43.994;2023-01-16T07:17:16;4.55;;;1.63;;
74677;SDS011;66967;56.330;43.994;2023-01-16T07:22:45;2.80;;;1.33;;
74677;SDS011;66967;56.330;43.994;2023-01-16T07:25:16;2.55;;;1.45;;
74677;SDS011;66967;56.330;43.994;2023-01-16T07:27:54;6.15;;;1.77;;
74677;SDS011;66967;56.330;43.994;2023-01-16T07:30:20;2.70;;;1.50;;
74677;SDS011;66967;56.330;43.994;2023-01-16T07:32:47;3.35;;;1.60;;
74677;SDS011;66967;56.330;43.994;2023-01-16T07:35:31;2.92;;;1.40;;
74677;SDS011;66967;56.330;43.994;2023-01-16T07:38:16;2.65;;;1.42;;
74677;SDS011;66967;56.330;43.994;2023-01-16T07:40:42;2.40;;;1.35;;
74677;SDS011;66967;56.330;43.994;2023-01-16T07:43:08;3.33;;;1.40;;
74677;SDS011;66967;56.330;43.994;2023-01-16T07:45:34;2.28;;;1.40;;
74677;SDS011;66967;56.330;43.994;2023-01-16T07:47:59;3.03;;;1.45;;
74677;SDS011;66967;56.330;43.994;2023-01-16T07:50:26;2.80;;;1.40;;
74677;SDS011;66967;56.330;43.994;2023-01-16T07:52:52;3.30;;;1.67;;
74677;SDS011;66967;56.330;43.994;2023-01-16T07:55:18;3.30;;;1.65;;
74677;SDS011;66967;56.330;43.994;2023-01-16T07:57:44;2.10;;;1.48;;
74677;SDS011;66967;56.330;43.994;2023-01-16T08:00:10;3.80;;;1.52;;
74677;SDS011;66967;56.330;43.994;2023-01-16T08:02:40;2.70;;;1.27;;
74677;SDS011;66967;56.330;43.994;2023-01-16T08:05:06;2.50;;;1.55;;
74677;SDS011;66967;56.330;43.994;2023-01-16T08:07:50;2.72;;;1.42;;
74677;SDS011;66967;56.330;43.994;2023-01-16T08:10:16;2.50;;;1.40;;
74677;SDS011;66967;56.330;43.994;2023-01-16T08:12:42;2.47;;;1.25;;
74677;SDS011;66967;56.330;43.994;2023-01-16T08:15:08;1.98;;;1.48;;
74677;SDS011;66967;56.330;43.994;2023-01-16T08:17:37;2.20;;;1.38;;
74677;SDS011;66967;56.330;43.994;2023-01-16T08:20:04;1.77;;;1.40;;
74677;SDS011;66967;56.330;43.994;2023-01-16T08:22:49;2.80;;;1.33;;
74677;SDS011;66967;56.330;43.994;2023-01-16T08:25:16;3.33;;;1.52;;
74677;SDS011;66967;56.330;43.994;2023-01-16T08:27:43;2.80;;;1.40;;
74677;SDS011;66967;56.330;43.994;2023-01-16T08:30:09;2.22;;;1.40;;
74677;SDS011;66967;56.330;43.994;2023-01-16T08:32:36;2.40;;;1.50;;
74677;SDS011;66967;56.330;43.994;2023-01-16T08:35:02;2.85;;;1.27;;
74677;SDS011;66967;56.330;43.994;2023-01-16T08:37:30;3.88;;;1.60;;
74677;SDS011;66967;56.330;43.994;2023-01-16T08:39:56;2.72;;;1.27;;
74677;SDS011;66967;56.330;43.994;2023-01-16T08:42:22;2.28;;;1.25;;
74677;SDS011;66967;56.330;43.994;2023-01-16T08:45:08;2.50;;;1.40;;
74677;SDS011;66967;56.330;43.994;2023-01-16T08:47:53;2.28;;;1.25;;
74677;SDS011;66967;56.330;43.994;2023-01-16T08:50:37;2.90;;;1.33;;
74677;SDS011;66967;56.330;43.994;2023-01-16T08:53:22;2.75;;;1.40;;
74677;SDS011;66967;56.330;43.994;2023-01-16T08:55:48;2.15;;;1.20;;
74677;SDS011;66967;56.330;43.994;2023-01-16T08:58:14;2.97;;;1.48;;
74677;SDS011;66967;56.330;43.994;2023-01-16T09:00:41;3.28;;;1.42;;
74677;SDS011;66967;56.330;43.994;2023-01-16T09:03:07;3.13;;;1.50;;
74677;SDS011;66967;56.330;43.994;2023-01-16T09:05:33;1.98;;;1.50;;
74677;SDS011;66967;56.330;43.994;2023-01-16T09:07:58;2.80;;;1.60;;
74677;SDS011;66967;56.330;43.994;2023-01-16T09:10:24;2.38;;;1.35;;
74677;SDS011;66967;56.330;43.994;2023-01-16T09:12:50;3.80;;;1.40;;
74677;SDS011;66967;56.330;43.994;2023-01-16T09:15:35;2.35;;;1.50;;
74677;SDS011;66967;56.330;43.994;2023-01-16T09:18:01;2.90;;;1.40;;
74677;SDS011;66967;56.330;43.994;2023-01-16T09:20:27;2.38;;;1.20;;
74677;SDS011;66967;56.330;43.994;2023-01-16T09:22:56;2.00;;;1.50;;
74677;SDS011;66967;56.330;43.994;2023-01-16T09:25:29;2.80;;;1.40;;
74677;SDS011;66967;56.330;43.994;2023-01-16T09:27:56;2.15;;;1.20;;
74677;SDS011;66967;56.330;43.994;2023-01-16T09:30:24;2.00;;;1.25;;
74677;SDS011;66967;56.330;43.994;2023-01-16T09:32:51;2.67;;;1.50;;
74677;SDS011;66967;56.330;43.994;2023-01-16T09:35:16;2.97;;;1.58;;
74677;SDS011;66967;56.330;43.994;2023-01-16T09:37:44;3.05;;;1.50;;
74677;SDS011;66967;56.330;43.994;2023-01-16T09:40:12;2.60;;;1.48;;
74677;SDS011;66967;56.330;43.994;2023-01-16T09:42:52;4.25;;;1.58;;
74677;SDS011;66967;56.330;43.994;2023-01-16T09:45:38;2.35;;;1.52;;
74677;SDS011;66967;56.330;43.994;2023-01-16T09:51:06;2.08;;;1.60;;
74677;SDS011;66967;56.330;43.994;2023-01-16T09:56:40;2.58;;;1.45;;
74677;SDS011;66967;56.330;43.994;2023-01-16T09:59:19;3.30;;;1.65;;
74677;SDS011;66967;56.330;43.994;2023-01-16T10:01:48;2.05;;;1.50;;
74677;SDS011;66967;56.330;43.994;2023-01-16T10:04:22;3.15;;;1.77;;
74677;SDS011;66967;56.330;43.994;2023-01-16T10:10:00;4.85;;;2.03;;
74677;SDS011;66967;56.330;43.994;2023-01-16T10:12:34;4.22;;;2.17;;
74677;SDS011;66967;56.330;43.994;2023-01-16T10:24:43;3.15;;;1.90;;
74677;SDS011;66967;56.330;43.994;2023-01-16T10:35:39;5.13;;;2.40;;
74677;SDS011;66967;56.330;43.994;2023-01-16T10:41:30;3.85;;;2.25;;
74677;SDS011;66967;56.330;43.994;2023-01-16T10:44:36;4.95;;;2.35;;
74677;SDS011;66967;56.330;43.994;2023-01-16T10:47:28;3.55;;;2.40;;
74677;SDS011;66967;56.330;43.994;2023-01-16T10:50:16;3.92;;;2.10;;
74677;SDS011;66967;56.330;43.994;2023-01-16T10:52:44;5.63;;;2.17;;
74677;SDS011;66967;56.330;43.994;2023-01-16T10:55:12;3.50;;;2.22;;
74677;SDS011;66967;56.330;43.994;2023-01-16T10:57:55;4.50;;;2.42;;
74677;SDS011;66967;56.330;43.994;2023-01-16T11:03:00;5.88;;;2.53;;
74677;SDS011;66967;56.330;43.994;2023-01-16T11:05:35;3.38;;;2.30;;
74677;SDS011;66967;56.330;43.994;2023-01-16T11:08:04;4.50;;;2.42;;
74677;SDS011;66967;56.330;43.994;2023-01-16T11:10:34;4.35;;;2.40;;
74677;SDS011;66967;56.330;43.994;2023-01-16T11:13:00;4.40;;;2.50;;
74677;SDS011;66967;56.330;43.994;2023-01-16T11:16:00;3.13;;;2.10;;
74677;SDS011;66967;56.330;43.994;2023-01-16T11:18:49;3.35;;;2.35;;
74677;SDS011;66967;56.330;43.994;2023-01-16T11:24:38;3.33;;;2.35;;
74677;SDS011;66967;56.330;43.994;2023-01-16T11:26:54;4.68;;;2.40;;
74677;SDS011;66967;56.330;43.994;2023-01-16T11:29:22;3.55;;;2.25;;
74677;SDS011;66967;56.330;43.994;2023-01-16T11:31:53;5.03;;;2.50;;
74677;SDS011;66967;56.330;43.994;2023-01-16T11:34:22;3.78;;;2.40;;
74677;SDS011;66967;56.330;43.994;2023-01-16T11:36:53;3.63;;;2.10;;
74677;SDS011;66967;56.330;43.994;2023-01-16T11:39:21;3.75;;;2.33;;
74677;SDS011;66967;56.330;43.994;2023-01-16T11:41:50;3.42;;;2.15;;
74677;SDS011;66967;56.330;43.994;2023-01-16T11:44:20;4.35;;;2.30;;
74677;SDS011;66967;56.330;43.994;2023-01-16T11:47:05;3.60;;;2.20;;
74677;SDS011;66967;56.330;43.994;2023-01-16T11:49:40;4.57;;;2.45;;
74677;SDS011;66967;56.330;43.994;2023-01-16T11:52:13;4.47;;;2.08;;
74677;SDS011;66967;56.330;43.994;2023-01-16T11:55:03;3.70;;;2.22;;
74677;SDS011;66967;56.330;43.994;2023-01-16T12:00:29;3.85;;;2.10;;
74677;SDS011;66967;56.330;43.994;2023-01-16T12:03:08;3.55;;;2.25;;
74677;SDS011;66967;56.330;43.994;2023-01-16T12:14:47;3.75;;;1.98;;
74677;SDS011;66967;56.330;43.994;2023-01-16T12:20:49;4.38;;;2.40;;
74677;SDS011;66967;56.330;43.994;2023-01-16T12:26:10;3.70;;;2.20;;
74677;SDS011;66967;56.330;43.994;2023-01-16T12:29:20;4.53;;;2.22;;
74677;SDS011;66967;56.330;43.994;2023-01-16T12:39:46;4.18;;;2.30;;
74677;SDS011;66967;56.330;43.994;2023-01-16T12:42:33;4.10;;;2.33;;
74677;SDS011;66967;56.330;43.994;2023-01-16T12:45:37;4.28;;;2.38;;
74677;SDS011;66967;56.330;43.994;2023-01-16T12:51:05;4.45;;;2.40;;
74677;SDS011;66967;56.330;43.994;2023-01-16T12:59:57;3.63;;;2.22;;
74677;SDS011;66967;56.330;43.994;2023-01-16T13:10:38;3.55;;;2.05;;
74677;SDS011;66967;56.330;43.994;2023-01-16T13:13:29;4.03;;;2.10;;
74677;SDS011;66967;56.330;43.994;2023-01-16T13:18:58;5.15;;;2.42;;
74677;SDS011;66967;56.330;43.994;2023-01-16T13:21:30;4.68;;;2.33;;
74677;SDS011;66967;56.330;43.994;2023-01-16T13:24:09;5.60;;;2.72;;
74677;SDS011;66967;56.330;43.994;2023-01-16T13:26:51;3.65;;;2.13;;
74677;SDS011;66967;56.330;43.994;2023-01-16T13:29:32;3.00;;;2.10;;
74677;SDS011;66967;56.330;43.994;2023-01-16T13:43:31;4.18;;;2.22;;
74677;SDS011;66967;56.330;43.994;2023-01-16T13:46:16;3.78;;;2.20;;
74677;SDS011;66967;56.330;43.994;2023-01-16T13:48:49;4.47;;;2.38;;
74677;SDS011;66967;56.330;43.994;2023-01-16T13:51:18;4.93;;;2.30;;
74677;SDS011;66967;56.330;43.994;2023-01-16T13:53:50;4.57;;;2.30;;
74677;SDS011;66967;56.330;43.994;2023-01-16T13:56:23;3.72;;;2.25;;
74677;SDS011;66967;56.330;43.994;2023-01-16T13:58:54;3.58;;;1.98;;
74677;SDS011;66967;56.330;43.994;2023-01-16T14:06:44;5.15;;;2.25;;
74677;SDS011;66967;56.330;43.994;2023-01-16T14:12:16;3.80;;;2.22;;
74677;SDS011;66967;56.330;43.994;2023-01-16T14:26:07;4.85;;;2.53;;
74677;SDS011;66967;56.330;43.994;2023-01-16T14:28:35;3.78;;;2.10;;
74677;SDS011;66967;56.330;43.994;2023-01-16T14:31:05;3.85;;;2.10;;
74677;SDS011;66967;56.330;43.994;2023-01-16T14:33:46;2.53;;;1.95;;
74677;SDS011;66967;56.330;43.994;2023-01-16T14:36:13;3.70;;;2.17;;
74677;SDS011;66967;56.330;43.994;2023-01-16T14:38:39;4.15;;;2.10;;
74677;SDS011;66967;56.330;43.994;2023-01-16T14:41:14;4.45;;;2.20;;
74677;SDS011;66967;56.330;43.994;2023-01-16T14:44:11;3.55;;;2.22;;
74677;SDS011;66967;56.330;43.994;2023-01-16T14:49:58;3.63;;;2.22;;
74677;SDS011;66967;56.330;43.994;2023-01-16T14:58:45;3.58;;;2.10;;
74677;SDS011;66967;56.330;43.994;2023-01-16T15:01:59;3.88;;;2.28;;
74677;SDS011;66967;56.330;43.994;2023-01-16T15:04:27;3.80;;;2.10;;
74677;SDS011;66967;56.330;43.994;2023-01-16T15:07:02;3.35;;;2.10;;
74677;SDS011;66967;56.330;43.994;2023-01-16T15:09:29;2.97;;;1.83;;
74677;SDS011;66967;56.330;43.994;2023-01-16T15:14:23;4.13;;;1.90;;
74677;SDS011;66967;56.330;43.994;2023-01-16T15:22:57;3.60;;;2.10;;
74677;SDS011;66967;56.330;43.994;2023-01-16T15:31:00;3.30;;;2.03;;
74677;SDS011;66967;56.330;43.994;2023-01-16T15:33:31;3.85;;;2.15;;
74677;SDS011;66967;56.330;43.994;2023-01-16T15:41:58;3.72;;;1.95;;
74677;SDS011;66967;56.330;43.994;2023-01-16T15:48:10;3.85;;;2.20;;
74677;SDS011;66967;56.330;43.994;2023-01-16T15:50:54;3.30;;;2.00;;
74677;SDS011;66967;56.330;43.994;2023-01-16T15:53:23;3.53;;;2.28;;
74677;SDS011;66967;56.330;43.994;2023-01-16T15:55:56;4.35;;;2.30;;
74677;SDS011;66967;56.330;43.994;2023-01-16T15:58:28;3.85;;;2.35;;
74677;SDS011;66967;56.330;43.994;2023-01-16T16:01:00;4.85;;;2.20;;
74677;SDS011;66967;56.330;43.994;2023-01-16T16:03:43;3.10;;;2.03;;
74677;SDS011;66967;56.330;43.994;2023-01-16T16:06:13;3.83;;;2.10;;
74677;SDS011;66967;56.330;43.994;2023-01-16T16:08:44;3.58;;;2.10;;
74677;SDS011;66967;56.330;43.994;2023-01-16T16:11:17;4.47;;;2.40;;
74677;SDS011;66967;56.330;43.994;2023-01-16T16:14:03;2.83;;;1.98;;
74677;SDS011;66967;56.330;43.994;2023-01-16T16:17:04;3.67;;;2.17;;
74677;SDS011;66967;56.330;43.994;2023-01-16T16:26:00;3.10;;;1.90;;
74677;SDS011;66967;56.330;43.994;2023-01-16T16:28:51;3.53;;;2.15;;
74677;SDS011;66967;56.330;43.994;2023-01-16T16:31:23;3.20;;;1.98;;
74677;SDS011;66967;56.330;43.994;2023-01-16T16:36:37;3.10;;;2.22;;
74677;SDS011;66967;56.330;43.994;2023-01-16T16:39:16;3.30;;;2.00;;
74677;SDS011;66967;56.330;43.994;2023-01-16T16:45:20;3.88;;;2.10;;
74677;SDS011;66967;56.330;43.994;2023-01-16T16:48:13;3.63;;;2.25;;
74677;SDS011;66967;56.330;43.994;2023-01-16T16:51:09;3.38;;;1.95;;
74677;SDS011;66967;56.330;43.994;2023-01-16T16:53:57;3.92;;;2.30;;
74677;SDS011;66967;56.330;43.994;2023-01-16T16:56:47;3.17;;;1.80;;
74677;SDS011;66967;56.330;43.994;2023-01-16T16:59:25;2.90;;;1.98;;
74677;SDS011;66967;56.330;43.994;2023-01-16T17:01:55;2.85;;;1.90;;
74677;SDS011;66967;56.330;43.994;2023-01-16T17:04:28;2.53;;;1.90;;
74677;SDS011;66967;56.330;43.994;2023-01-16T17:06:55;3.28;;;1.95;;
74677;SDS011;66967;56.330;43.994;2023-01-16T17:09:24;2.92;;;1.85;;
74677;SDS011;66967;56.330;43.994;2023-01-16T17:11:51;3.20;;;2.13;;
74677;SDS011;66967;56.330;43.994;2023-01-16T17:14:16;3.78;;;2.10;;
74677;SDS011;66967;56.330;43.994;2023-01-16T17:16:42;3.88;;;2.28;;
74677;SDS011;66967;56.330;43.994;2023-01-16T17:21:40;4.20;;;2.17;;
74677;SDS011;66967;56.330;43.994;2023-01-16T17:24:08;3.63;;;2.20;;
74677;SDS011;66967;56.330;43.994;2023-01-16T17:26:39;3.55;;;1.95;;
74677;SDS011;66967;56.330;43.994;2023-01-16T17:29:06;4.53;;;2.10;;
74677;SDS011;66967;56.330;43.994;2023-01-16T17:31:32;3.08;;;1.95;;
74677;SDS011;66967;56.330;43.994;2023-01-16T17:34:02;3.15;;;2.10;;
74677;SDS011;66967;56.330;43.994;2023-01-16T17:36:28;4.75;;;2.28;;
74677;SDS011;66967;56.330;43.994;2023-01-16T17:38:54;4.65;;;2.10;;
74677;SDS011;66967;56.330;43.994;2023-01-16T17:41:21;3.05;;;2.05;;
74677;SDS011;66967;56.330;43.994;2023-01-16T17:43:49;2.97;;;1.83;;
74677;SDS011;66967;56.330;43.994;2023-01-16T17:46:34;2.88;;;1.98;;
74677;SDS011;66967;56.330;43.994;2023-01-16T17:49:00;3.72;;;2.00;;
74677;SDS011;66967;56.330;43.994;2023-01-16T17:51:26;2.60;;;1.77;;
74677;SDS011;66967;56.330;43.994;2023-01-16T17:54:11;3.05;;;1.80;;
74677;SDS011;66967;56.330;43.994;2023-01-16T17:56:57;2.95;;;1.80;;
74677;SDS011;66967;56.330;43.994;2023-01-16T17:59:22;2.78;;;1.98;;
74677;SDS011;66967;56.330;43.994;2023-01-16T18:01:52;3.83;;;2.20;;
74677;SDS011;66967;56.330;43.994;2023-01-16T18:04:19;2.70;;;1.80;;
74677;SDS011;66967;56.330;43.994;2023-01-16T18:06:45;3.22;;;1.77;;
74677;SDS011;66967;56.330;43.994;2023-01-16T18:09:11;2.63;;;1.77;;
74677;SDS011;66967;56.330;43.994;2023-01-16T18:11:41;3.45;;;1.90;;
74677;SDS011;66967;56.330;43.994;2023-01-16T18:14:27;3.50;;;1.83;;
74677;SDS011;66967;56.330;43.994;2023-01-16T18:17:16;2.65;;;1.83;;